Time;durP1;ratioP1;P1;durP2;ratioP2;P2;SDS_P1;SDS_P2;PMS_P1;PMS_P2;Temp;Humidity;BMP_temperature;BMP_pressure;BME280_temperature;BME280_humidity;BME280_pressure;Samples;Min_cycle;Max_cycle;Signal;HPM_P1;HPM_P2
2022/06/09 00:00:35;;;;;;;1.85;0.70;;;16.40;99.90;;;;;;6945963;28;20081;-79
2022/06/09 00:04:03;;;;;;;4.47;0.90;;;16.40;99.90;;;;;;6939385;28;20046;-80
2022/06/09 00:07:26;;;;;;;1.23;0.60;;;16.30;99.90;;;;;;6943790;28;20415;-80
2022/06/09 00:10:54;;;;;;;1.35;0.60;;;16.30;99.90;;;;;;6944175;28;20065;-80
2022/06/09 00:14:19;;;;;;;2.58;0.55;;;16.40;99.90;;;;;;6945533;28;20080;-79
2022/06/09 00:17:41;;;;;;;2.08;0.77;;;16.40;99.90;;;;;;6946690;28;20081;-79
2022/06/09 00:21:04;;;;;;;1.65;0.80;;;16.40;99.90;;;;;;6947706;28;20049;-79
2022/06/09 00:24:27;;;;;;;1.88;0.55;;;16.40;99.90;;;;;;6947592;28;20514;-79
2022/06/09 00:27:49;;;;;;;;;;;16.40;99.90;;;;;;6943677;28;20515;-80
2022/06/09 00:31:12;;;;;;;1.58;0.70;;;16.50;99.90;;;;;;6942532;28;20369;-80
2022/06/09 00:34:34;;;;;;;2.30;0.60;;;16.50;99.90;;;;;;6945419;28;20073;-79
2022/06/09 00:37:56;;;;;;;1.23;0.50;;;16.50;99.90;;;;;;6944583;28;20077;-79
2022/06/09 00:41:18;;;;;;;0.90;0.50;;;16.40;99.90;;;;;;6944086;28;20518;-80
2022/06/09 00:44:40;;;;;;;2.30;0.70;;;16.40;99.90;;;;;;6943918;28;20573;-79
2022/06/09 00:48:28;;;;;;;3.20;0.90;;;16.40;99.90;;;;;;6941941;28;20049;-79
2022/06/09 00:51:55;;;;;;;1.70;0.73;;;16.40;99.90;;;;;;6943492;28;20402;-80
2022/06/09 00:55:23;;;;;;;1.35;0.65;;;16.30;99.90;;;;;;6942671;28;20062;-79
2022/06/09 00:58:49;;;;;;;2.30;0.90;;;16.30;99.90;;;;;;6942814;28;20085;-79
2022/06/09 01:02:14;;;;;;;1.80;0.75;;;16.30;99.90;;;;;;6913675;28;20080;-80
2022/06/09 01:05:41;;;;;;;3.35;0.82;;;16.20;99.90;;;;;;6941845;28;20132;-79
2022/06/09 01:09:08;;;;;;;1.10;0.57;;;16.10;99.90;;;;;;6944166;28;20146;-77
2022/06/09 01:12:35;;;;;;;2.00;0.75;;;16.00;99.90;;;;;;6941261;28;20073;-78
2022/06/09 01:16:07;;;;;;;2.00;0.80;;;15.90;99.90;;;;;;6942622;28;20080;-80
2022/06/09 01:19:56;;;;;;;2.83;0.70;;;16.00;99.90;;;;;;6943666;28;20061;-79
2022/06/09 01:23:51;;;;;;;3.03;0.82;;;16.00;99.90;;;;;;6931025;28;20045;-78
2022/06/09 01:27:27;;;;;;;0.95;0.60;;;15.90;99.90;;;;;;6941973;28;20042;-77
2022/06/09 01:30:56;;;;;;;3.80;0.60;;;15.90;99.90;;;;;;6941465;28;20100;-78
2022/06/09 01:34:25;;;;;;;1.92;0.60;;;15.90;99.90;;;;;;6942592;28;20053;-79
2022/06/09 01:37:52;;;;;;;2.22;0.70;;;15.90;99.90;;;;;;6942004;28;20050;-77
2022/06/09 01:41:16;;;;;;;2.30;0.80;;;15.90;99.90;;;;;;6940862;28;20072;-80
2022/06/09 01:44:38;;;;;;;3.33;0.70;;;15.90;99.90;;;;;;6941942;28;20258;-80
2022/06/09 01:48:07;;;;;;;3.03;0.70;;;16.00;99.90;;;;;;6941836;28;20041;-81
2022/06/09 01:51:34;;;;;;;1.30;0.60;;;16.00;99.90;;;;;;6941960;28;20046;-80
2022/06/09 01:54:57;;;;;;;1.55;0.57;;;16.00;99.90;;;;;;6940619;28;20046;-80
2022/06/09 01:58:25;;;;;;;3.25;0.80;;;16.00;99.90;;;;;;6941148;28;20056;-79
2022/06/09 02:01:54;;;;;;;1.63;0.60;;;16.10;99.90;;;;;;6941813;28;20045;-80
2022/06/09 02:05:22;;;;;;;2.00;0.68;;;16.10;99.90;;;;;;6941473;28;20081;-80
2022/06/09 02:08:44;;;;;;;2.28;0.70;;;16.00;99.90;;;;;;6941132;28;20088;-79
2022/06/09 02:12:11;;;;;;;1.33;0.68;;;15.90;99.90;;;;;;6941622;28;20111;-79
2022/06/09 02:15:37;;;;;;;1.58;0.70;;;15.80;99.90;;;;;;6942227;28;20123;-80
2022/06/09 02:18:59;;;;;;;2.08;0.70;;;15.80;99.90;;;;;;6940172;28;20419;-80
2022/06/09 02:22:22;;;;;;;3.03;0.70;;;15.80;99.90;;;;;;6938018;28;20123;-79
2022/06/09 02:25:45;;;;;;;2.58;0.70;;;15.90;99.90;;;;;;6940617;28;20080;-78
2022/06/09 02:29:07;;;;;;;2.85;0.68;;;15.90;99.90;;;;;;6940866;28;20081;-80
2022/06/09 02:32:29;;;;;;;3.10;0.80;;;15.80;99.90;;;;;;6940837;28;20088;-79
2022/06/09 02:35:52;;;;;;;2.80;0.90;;;15.70;99.90;;;;;;6939708;28;20061;-78
2022/06/09 02:39:16;;;;;;;3.25;0.88;;;15.80;99.90;;;;;;6941568;28;20480;-79
2022/06/09 02:42:38;;;;;;;2.20;0.90;;;15.70;99.90;;;;;;6940809;28;20100;-79
2022/06/09 02:46:01;;;;;;;2.30;0.88;;;15.80;99.90;;;;;;6940347;28;20072;-77
2022/06/09 02:49:23;;;;;;;2.35;0.82;;;15.80;99.90;;;;;;6940872;28;20590;-78
2022/06/09 02:52:45;;;;;;;3.43;0.90;;;15.80;99.90;;;;;;6939265;28;20530;-78
2022/06/09 02:56:09;;;;;;;1.67;0.80;;;15.90;99.90;;;;;;6926190;28;20077;-78
2022/06/09 02:59:31;;;;;;;2.83;0.90;;;15.80;99.90;;;;;;6940288;28;20056;-78
2022/06/09 03:02:56;;;;;;;3.83;0.90;;;15.80;99.90;;;;;;6939784;28;20455;-78
2022/06/09 03:06:18;;;;;;;2.28;1.00;;;15.70;99.90;;;;;;6941444;28;20507;-80
2022/06/09 03:09:40;;;;;;;2.60;1.00;;;15.80;99.90;;;;;;6939711;28;20050;-78
2022/06/09 03:13:04;;;;;;;2.10;0.83;;;15.70;99.90;;;;;;6945060;28;20081;-79
2022/06/09 03:16:27;;;;;;;2.65;0.80;;;15.70;99.90;;;;;;6944827;28;20115;-78
2022/06/09 03:19:49;;;;;;;4.03;1.23;;;15.70;99.90;;;;;;6945778;28;20052;-80
2022/06/09 03:23:11;;;;;;;4.20;0.90;;;15.70;99.90;;;;;;6945690;28;20515;-79
2022/06/09 03:26:33;;;;;;;1.87;0.90;;;15.70;99.90;;;;;;6946297;28;20813;-79
2022/06/09 03:29:57;;;;;;;1.77;0.70;;;15.60;99.90;;;;;;6944757;28;20069;-77
2022/06/09 03:33:19;;;;;;;2.22;0.98;;;15.60;99.90;;;;;;6933785;28;20443;-77
2022/06/09 03:36:43;;;;;;;1.93;0.80;;;15.60;99.90;;;;;;6943177;28;20398;-79
2022/06/09 03:40:08;;;;;;;3.55;1.00;;;15.60;99.90;;;;;;6928554;28;20115;-80
2022/06/09 03:43:30;;;;;;;2.90;0.90;;;15.60;99.90;;;;;;6946275;28;20495;-79
2022/06/09 03:46:54;;;;;;;2.50;0.80;;;15.60;99.90;;;;;;6942884;28;20138;-78
2022/06/09 03:50:20;;;;;;;2.55;1.10;;;15.70;99.90;;;;;;6944976;28;20053;-78
2022/06/09 03:53:42;;;;;;;3.67;0.98;;;15.70;99.90;;;;;;6944344;28;20498;-78
2022/06/09 03:57:05;;;;;;;1.60;0.80;;;15.70;99.90;;;;;;6945721;28;20084;-78
2022/06/09 04:00:31;;;;;;;2.70;0.90;;;15.60;99.90;;;;;;6944612;28;20077;-79
2022/06/09 04:03:55;;;;;;;3.35;0.90;;;15.60;99.90;;;;;;6943273;28;20084;-79
2022/06/09 04:07:17;;;;;;;2.38;0.98;;;15.50;99.90;;;;;;6944808;28;20406;-79
2022/06/09 04:10:39;;;;;;;3.35;0.80;;;15.60;99.90;;;;;;6942557;28;20073;-78
2022/06/09 04:14:01;;;;;;;2.92;0.90;;;15.50;99.90;;;;;;6944468;28;20452;-78
2022/06/09 04:17:24;;;;;;;4.05;0.90;;;15.50;99.90;;;;;;6945312;28;20491;-79
2022/06/09 04:20:48;;;;;;;4.15;1.10;;;15.50;99.90;;;;;;6942144;28;20045;-78
2022/06/09 04:24:10;;;;;;;2.67;0.98;;;15.50;99.90;;;;;;6942589;28;20062;-80
2022/06/09 04:27:33;;;;;;;2.78;0.90;;;15.50;99.90;;;;;;6943358;28;20041;-78
2022/06/09 04:30:55;;;;;;;2.00;0.68;;;15.50;99.90;;;;;;6927826;28;20041;-79
2022/06/09 04:34:17;;;;;;;1.37;0.70;;;15.50;99.90;;;;;;6934398;28;20503;-79
2022/06/09 04:38:01;;;;;;;1.57;0.70;;;15.40;99.90;;;;;;6945531;28;20095;-80
2022/06/09 04:41:23;;;;;;;2.72;0.80;;;15.40;99.90;;;;;;6945824;28;20318;-79
2022/06/09 04:44:45;;;;;;;2.07;0.80;;;15.40;99.90;;;;;;6945734;28;20484;-79
2022/06/09 04:48:09;;;;;;;2.57;0.90;;;15.40;99.90;;;;;;6945638;28;20084;-78
2022/06/09 04:51:31;;;;;;;2.85;0.77;;;15.40;99.90;;;;;;6945836;28;20128;-80
2022/06/09 04:54:55;;;;;;;3.17;0.83;;;15.40;99.90;;;;;;6945452;28;20053;-78
2022/06/09 04:58:17;;;;;;;3.38;1.05;;;15.40;99.90;;;;;;6945157;28;20475;-79
2022/06/09 05:01:39;;;;;;;2.37;0.80;;;15.40;99.90;;;;;;6945194;28;20085;-78
2022/06/09 05:05:01;;;;;;;2.93;1.00;;;15.30;99.90;;;;;;6945321;28;20053;-79
2022/06/09 05:08:23;;;;;;;5.07;1.30;;;15.30;99.90;;;;;;6944853;28;20046;-81
2022/06/09 05:11:46;;;;;;;2.63;0.90;;;15.30;99.90;;;;;;6944966;28;20488;-79
2022/06/09 05:15:13;;;;;;;5.32;1.00;;;15.40;99.90;;;;;;6945029;28;20046;-78
2022/06/09 05:18:37;;;;;;;5.20;1.10;;;15.30;99.90;;;;;;6944726;28;20143;-80
2022/06/09 05:21:59;;;;;;;5.38;1.23;;;15.30;99.90;;;;;;6944984;28;20499;-79
2022/06/09 05:25:21;;;;;;;3.67;1.20;;;15.30;99.90;;;;;;6944295;28;20054;-77
2022/06/09 05:28:45;;;;;;;3.90;1.00;;;15.30;99.90;;;;;;6944549;28;20085;-77
2022/06/09 05:32:08;;;;;;;5.75;1.20;;;15.30;99.90;;;;;;6944199;28;20046;-80
2022/06/09 05:35:30;;;;;;;3.97;1.20;;;15.30;99.90;;;;;;6943815;28;20514;-79
2022/06/09 05:46:16;;;;;;;2.00;0.90;;;15.50;99.90;;;;;;6918511;28;20132;-81
2022/06/09 05:49:38;;;;;;;4.68;1.10;;;15.50;99.90;;;;;;6944548;28;20050;-80
2022/06/09 05:53:00;;;;;;;2.43;0.90;;;15.50;99.90;;;;;;6944526;28;20518;-78
2022/06/09 05:56:22;;;;;;;4.60;0.90;;;15.60;99.90;;;;;;6944223;28;20092;-81
2022/06/09 05:59:44;;;;;;;4.77;1.30;;;15.60;99.90;;;;;;6944011;28;20054;-77
2022/06/09 06:03:07;;;;;;;3.40;1.00;;;15.60;99.90;;;;;;6944278;28;20052;-79
2022/06/09 06:06:35;;;;;;;3.60;1.10;;;15.60;99.90;;;;;;6944216;28;20442;-77
2022/06/09 06:09:57;;;;;;;3.00;1.02;;;15.70;99.90;;;;;;6948675;28;20053;-77
2022/06/09 06:13:19;;;;;;;3.55;1.30;;;15.70;99.90;;;;;;6949937;28;20053;-77
2022/06/09 06:16:41;;;;;;;4.73;1.17;;;15.80;99.90;;;;;;6945194;28;20045;-79
2022/06/09 06:20:06;;;;;;;3.53;1.23;;;15.80;99.90;;;;;;6946628;28;20049;-78
2022/06/09 06:23:28;;;;;;;6.07;1.25;;;15.90;99.90;;;;;;6948219;28;20072;-79
2022/06/09 06:26:51;;;;;;;3.63;0.93;;;16.00;99.90;;;;;;6945795;28;20526;-77
2022/06/09 06:30:13;;;;;;;5.13;1.10;;;16.10;99.90;;;;;;6943502;28;20084;-79
2022/06/09 06:33:35;;;;;;;3.95;1.13;;;16.10;99.90;;;;;;6944816;28;20072;-79
2022/06/09 06:36:59;;;;;;;4.57;1.20;;;16.10;99.90;;;;;;6946151;28;20050;-79
2022/06/09 06:40:22;;;;;;;3.95;1.00;;;16.10;99.90;;;;;;6947709;28;20057;-76
2022/06/09 06:43:45;;;;;;;6.65;1.13;;;16.10;99.90;;;;;;6945590;28;20053;-78
2022/06/09 06:47:07;;;;;;;3.97;1.20;;;16.20;99.90;;;;;;6943007;28;20060;-76
2022/06/09 06:50:29;;;;;;;5.30;1.10;;;16.10;99.90;;;;;;6943574;28;20113;-80
2022/06/09 06:53:52;;;;;;;3.90;1.10;;;16.20;99.90;;;;;;6943411;28;20109;-76
2022/06/09 06:57:14;;;;;;;4.18;1.15;;;16.20;99.90;;;;;;6943690;28;20491;-77
2022/06/09 07:00:37;;;;;;;7.03;1.30;;;16.20;99.90;;;;;;6943124;28;20030;-79
2022/06/09 07:03:59;;;;;;;3.53;1.00;;;16.30;99.90;;;;;;6943136;28;20086;-80
2022/06/09 07:07:21;;;;;;;5.10;1.30;;;16.20;99.90;;;;;;6943268;28;20101;-75
2022/06/09 07:10:46;;;;;;;5.67;0.90;;;16.20;99.90;;;;;;6942887;28;20513;-81
2022/06/09 07:14:08;;;;;;;6.57;1.17;;;16.20;99.90;;;;;;6942947;28;20084;-78
2022/06/09 07:17:30;;;;;;;5.40;1.30;;;16.30;99.90;;;;;;6943218;28;20056;-78
2022/06/09 07:20:52;;;;;;;6.70;1.20;;;16.30;99.90;;;;;;6943709;28;20362;-77
2022/06/09 07:24:14;;;;;;;8.05;1.27;;;16.30;99.90;;;;;;6944677;28;20092;-77
2022/06/09 07:27:38;;;;;;;6.50;1.45;;;16.40;99.90;;;;;;6943726;28;20049;-76
2022/06/09 07:31:02;;;;;;;4.38;1.00;;;16.40;99.90;;;;;;6942864;28;20057;-77
2022/06/09 07:34:24;;;;;;;4.10;1.00;;;16.30;99.90;;;;;;6943522;28;20056;-79
2022/06/09 07:37:47;;;;;;;5.00;1.23;;;16.40;99.90;;;;;;6942244;28;20077;-76
2022/06/09 07:41:10;;;;;;;5.28;1.30;;;16.50;99.90;;;;;;6942296;28;20050;-76
2022/06/09 07:44:33;;;;;;;4.80;1.05;;;16.60;99.90;;;;;;6942265;28;20099;-79
2022/06/09 07:47:55;;;;;;;5.18;1.00;;;16.60;99.90;;;;;;6942481;28;20049;-77
2022/06/09 07:51:18;;;;;;;4.63;1.30;;;16.50;99.90;;;;;;6942235;28;20407;-78
2022/06/09 07:54:40;;;;;;;4.65;1.13;;;16.50;99.90;;;;;;6942783;28;20072;-77
2022/06/09 07:58:02;;;;;;;6.68;1.17;;;16.50;99.90;;;;;;6945839;28;20404;-76
2022/06/09 08:01:26;;;;;;;4.87;0.97;;;16.50;99.90;;;;;;6947083;28;20053;-79
2022/06/09 08:04:48;;;;;;;4.43;0.93;;;16.60;98.80;;;;;;6947335;28;20340;-78
2022/06/09 08:08:10;;;;;;;5.25;1.25;;;16.60;98.50;;;;;;6947265;28;20046;-77
2022/06/09 08:11:37;;;;;;;4.27;1.27;;;16.80;97.90;;;;;;6946780;28;20060;-80
2022/06/09 08:14:59;;;;;;;3.10;0.88;;;16.90;98.10;;;;;;6946603;28;20052;-79
2022/06/09 08:18:22;;;;;;;3.90;1.03;;;16.90;98.30;;;;;;6946913;28;20544;-78
2022/06/09 08:21:44;;;;;;;6.45;1.20;;;17.00;97.70;;;;;;6946788;28;20052;-79
2022/06/09 08:25:08;;;;;;;4.50;1.30;;;17.00;97.50;;;;;;6946523;28;20058;-78
2022/06/09 08:28:30;;;;;;;6.45;1.20;;;17.00;98.30;;;;;;6946617;28;20476;-81
2022/06/09 08:31:52;;;;;;;6.32;1.42;;;17.10;97.40;;;;;;6946742;28;20448;-77
2022/06/09 08:35:19;;;;;;;6.53;1.10;;;17.20;98.20;;;;;;6946547;28;20049;-79
2022/06/09 08:38:42;;;;;;;6.97;1.00;;;17.30;97.50;;;;;;6946270;28;20111;-79
2022/06/09 08:42:26;;;;;;;3.90;1.05;;;17.40;95.90;;;;;;6946425;28;20410;-79
2022/06/09 08:45:49;;;;;;;4.68;1.08;;;17.50;96.50;;;;;;6947008;28;20483;-76
2022/06/09 08:49:32;;;;;;;6.15;1.00;;;17.50;94.90;;;;;;6945973;28;20843;-79
2022/06/09 08:53:04;;;;;;;5.38;0.90;;;17.70;95.10;;;;;;6946029;28;20088;-77
2022/06/09 08:56:31;;;;;;;7.32;1.13;;;17.90;95.20;;;;;;6946078;28;20100;-80
2022/06/09 08:59:58;;;;;;;7.53;1.10;;;17.80;94.30;;;;;;6945524;28;20523;-78
2022/06/09 09:03:28;;;;;;;6.65;1.10;;;17.80;94.20;;;;;;6946449;28;20091;-76
2022/06/09 09:06:56;;;;;;;5.38;1.10;;;17.80;93.40;;;;;;6945865;28;20104;-78
2022/06/09 09:10:24;;;;;;;8.35;1.23;;;17.90;94.10;;;;;;6944478;28;20087;-75
2022/06/09 09:13:52;;;;;;;5.45;1.30;;;18.00;94.70;;;;;;6945501;28;20060;-79
2022/06/09 09:17:22;;;;;;;4.53;0.90;;;17.80;91.80;;;;;;6945798;28;20046;-77
2022/06/09 09:20:57;;;;;;;5.03;1.05;;;17.80;93.60;;;;;;6947760;28;20045;-78
2022/06/09 09:24:30;;;;;;;5.93;1.00;;;18.10;92.80;;;;;;6948448;28;20053;-75
2022/06/09 09:28:02;;;;;;;5.53;0.90;;;18.10;93.20;;;;;;6945085;28;20060;-78
2022/06/09 09:31:54;;;;;;;3.85;0.70;;;18.20;93.40;;;;;;6945135;28;20172;-80
2022/06/09 09:35:20;;;;;;;3.03;0.80;;;18.30;92.60;;;;;;6944821;28;20108;-80
2022/06/09 09:38:51;;;;;;;5.10;0.90;;;18.40;91.80;;;;;;6945115;28;20117;-80
2022/06/09 09:42:18;;;;;;;7.85;1.02;;;18.40;92.10;;;;;;6945216;28;20495;-75
2022/06/09 09:45:45;;;;;;;3.20;0.80;;;18.50;91.40;;;;;;6944861;28;20049;-78
2022/06/09 09:49:22;;;;;;;11.32;1.13;;;18.50;89.80;;;;;;6945483;28;20444;-77
2022/06/09 09:52:47;;;;;;;5.07;0.90;;;18.70;88.40;;;;;;6944421;28;20050;-79
2022/06/09 09:56:32;;;;;;;3.72;0.80;;;18.70;88.10;;;;;;6944360;28;20061;-80
2022/06/09 09:59:57;;;;;;;5.47;0.98;;;18.60;87.20;;;;;;6944113;28;20088;-79
2022/06/09 10:14:52;;;;;;;4.18;1.10;;;18.90;89.90;;;;;;6926724;28;20057;-75
2022/06/09 10:18:18;;;;;;;5.30;0.82;;;19.10;89.50;;;;;;6943609;28;20045;-76
2022/06/09 10:21:54;;;;;;;5.00;0.90;;;19.10;88.20;;;;;;6943899;28;20081;-75
2022/06/09 10:25:24;;;;;;;4.72;1.05;;;19.10;84.60;;;;;;6944224;28;20555;-79
2022/06/09 10:28:55;;;;;;;3.55;0.63;;;19.10;85.20;;;;;;6943787;28;20053;-77
2022/06/09 10:32:23;;;;;;;2.67;0.97;;;19.10;84.10;;;;;;6943538;28;20060;-78
2022/06/09 10:35:52;;;;;;;3.00;0.70;;;19.10;83.70;;;;;;6943340;28;20088;-80
2022/06/09 10:39:28;;;;;;;3.00;0.75;;;19.10;84.60;;;;;;6943398;28;20049;-79
2022/06/09 10:42:57;;;;;;;3.03;0.80;;;19.00;83.80;;;;;;6943539;28;20104;-79
2022/06/09 10:46:32;;;;;;;4.85;1.20;;;18.80;84.10;;;;;;6942952;28;20046;-78
2022/06/09 10:57:36;;;;;;;3.15;0.55;;;18.10;91.50;;;;;;6943700;28;20124;-77
2022/06/09 11:00:59;;;;;;;1.92;0.50;;;18.10;84.50;;;;;;6942792;28;20088;-78
2022/06/09 11:04:22;;;;;;;2.00;0.50;;;18.20;84.10;;;;;;6942785;28;20046;-79
2022/06/09 11:08:00;;;;;;;1.02;0.30;;;18.40;84.60;;;;;;6942347;28;20047;-79
2022/06/09 11:11:34;;;;;;;2.08;0.63;;;18.50;81.80;;;;;;6942510;28;20542;-79
2022/06/09 11:15:11;;;;;;;2.05;0.60;;;18.80;82.20;;;;;;6942190;28;20049;-77
2022/06/09 11:18:42;;;;;;;3.83;0.80;;;18.80;79.50;;;;;;6942281;28;20085;-79
2022/06/09 11:22:16;;;;;;;3.05;0.70;;;18.80;82.70;;;;;;6942249;28;20384;-79
2022/06/09 11:25:51;;;;;;;3.50;0.80;;;18.90;83.60;;;;;;6942102;28;20147;-77
2022/06/09 11:29:40;;;;;;;3.80;0.93;;;19.10;85.10;;;;;;6942233;28;20129;-78
2022/06/09 11:33:14;;;;;;;3.90;0.80;;;19.10;89.10;;;;;;6945228;28;20182;-79
2022/06/09 11:36:43;;;;;;;3.50;0.80;;;19.20;91.60;;;;;;6947113;28;20088;-79
2022/06/09 11:40:19;;;;;;;3.55;0.90;;;19.50;91.70;;;;;;6947332;28;20190;-79
2022/06/09 11:43:56;;;;;;;3.97;0.77;;;19.60;90.90;;;;;;6947493;28;20127;-75
2022/06/09 11:47:20;;;;;;;2.22;0.63;;;19.60;91.70;;;;;;6947618;28;20606;-78
2022/06/09 11:50:45;;;;;;;2.63;0.60;;;19.60;91.80;;;;;;6946939;28;20503;-79
2022/06/09 11:54:37;;;;;;;2.30;0.60;;;19.60;90.60;;;;;;6947018;28;20046;-78
2022/06/09 11:57:59;;;;;;;2.92;0.90;;;19.40;90.20;;;;;;6946879;28;20123;-79
2022/06/09 12:01:55;;;;;;;2.65;0.70;;;19.50;90.10;;;;;;6946545;28;20096;-76
2022/06/09 12:05:25;;;;;;;6.30;1.20;;;19.60;90.40;;;;;;6943314;28;20084;-76
2022/06/09 12:09:04;;;;;;;4.85;1.00;;;19.50;91.40;;;;;;6946529;28;20077;-78
2022/06/09 12:12:34;;;;;;;4.13;1.05;;;19.40;91.20;;;;;;6946515;28;20084;-79
2022/06/09 12:16:00;;;;;;;6.55;1.48;;;19.50;91.40;;;;;;6946427;28;20077;-77
2022/06/09 12:19:25;;;;;;;4.15;1.10;;;19.70;92.60;;;;;;6946206;28;20054;-76
2022/06/09 12:23:01;;;;;;;6.05;1.20;;;19.90;92.30;;;;;;6946227;28;20426;-79
2022/06/09 12:26:49;;;;;;;4.03;0.95;;;20.00;91.30;;;;;;6946702;28;20080;-78
2022/06/09 12:31:09;;;;;;;5.78;0.85;;;19.80;86.10;;;;;;6949042;28;20053;-78
2022/06/09 12:34:32;;;;;;;4.22;0.90;;;19.60;90.20;;;;;;6885893;28;20057;-78
2022/06/09 12:38:00;;;;;;;4.05;0.82;;;19.40;86.30;;;;;;6946938;28;20187;-77
2022/06/09 12:41:29;;;;;;;4.28;0.80;;;19.40;84.70;;;;;;6948063;28;20131;-77
2022/06/09 12:45:02;;;;;;;4.93;1.08;;;19.50;79.40;;;;;;6946283;28;20073;-78
2022/06/09 12:48:30;;;;;;;6.53;1.08;;;19.50;84.00;;;;;;6946502;28;20217;-77
2022/06/09 12:51:53;;;;;;;3.90;1.00;;;19.60;83.50;;;;;;6946025;28;20100;-77
2022/06/09 12:55:21;;;;;;;4.70;0.93;;;19.50;84.00;;;;;;6946135;28;20085;-77
2022/06/09 12:58:47;;;;;;;6.78;1.00;;;19.60;81.00;;;;;;6945437;28;20099;-80
2022/06/09 13:02:27;;;;;;;2.47;0.80;;;19.50;79.50;;;;;;6945596;28;20049;-79
2022/06/09 13:05:50;;;;;;;5.30;1.20;;;19.40;77.90;;;;;;6945127;28;20053;-77
2022/06/09 13:09:20;;;;;;;4.63;1.00;;;19.50;79.70;;;;;;6945382;28;20510;-78
2022/06/09 13:12:51;;;;;;;5.10;0.90;;;19.50;78.70;;;;;;6945505;28;20053;-77
2022/06/09 13:16:24;;;;;;;4.05;0.70;;;19.60;77.10;;;;;;6944851;28;20056;-77
2022/06/09 13:19:57;;;;;;;3.95;0.90;;;19.70;78.20;;;;;;6944618;28;20081;-77
2022/06/09 13:23:22;;;;;;;3.72;0.93;;;19.80;77.10;;;;;;6944593;28;20114;-79
2022/06/09 13:26:46;;;;;;;3.97;0.80;;;19.90;77.20;;;;;;6944537;28;20042;-78
2022/06/09 13:30:38;;;;;;;4.53;1.10;;;19.90;76.20;;;;;;6944189;28;20127;-76
2022/06/09 13:34:05;;;;;;;3.25;0.90;;;19.90;76.60;;;;;;6944365;28;20534;-78
2022/06/09 13:37:41;;;;;;;4.22;0.95;;;19.80;75.10;;;;;;6944502;28;20471;-78
2022/06/09 13:41:19;;;;;;;3.65;0.90;;;19.70;75.50;;;;;;6944181;28;20085;-79
2022/06/09 13:44:44;;;;;;;2.15;0.68;;;20.00;77.40;;;;;;6944135;28;20077;-80
2022/06/09 13:48:17;;;;;;;10.25;1.17;;;19.80;81.60;;;;;;6944123;28;20559;-78
2022/06/09 13:52:00;;;;;;;3.60;1.10;;;19.40;84.90;;;;;;6943934;28;20054;-78
2022/06/09 13:55:27;;;;;;;3.45;0.80;;;19.30;85.70;;;;;;6943336;28;20143;-78
2022/06/09 13:58:51;;;;;;;6.45;1.25;;;19.80;86.10;;;;;;6943807;28;20479;-78
2022/06/09 14:02:18;;;;;;;4.47;1.20;;;19.90;85.50;;;;;;6943817;28;20072;-80
2022/06/09 14:05:46;;;;;;;4.68;1.00;;;19.80;85.40;;;;;;6943488;28;20502;-79
2022/06/09 14:09:11;;;;;;;4.47;0.90;;;19.80;85.20;;;;;;6922418;28;20520;-79
2022/06/09 14:12:33;;;;;;;4.47;1.10;;;20.30;85.40;;;;;;6916399;28;20507;-77
2022/06/09 14:15:57;;;;;;;5.53;1.10;;;20.50;84.70;;;;;;6916408;28;20104;-78
2022/06/09 14:19:19;;;;;;;3.92;0.77;;;20.60;83.90;;;;;;6916190;28;20042;-78
2022/06/09 14:22:41;;;;;;;3.38;0.90;;;20.50;84.30;;;;;;6915918;28;20049;-77
2022/06/09 14:26:07;;;;;;;5.85;0.98;;;20.40;84.40;;;;;;6915912;28;20492;-78
2022/06/09 14:29:30;;;;;;;3.95;0.90;;;20.30;85.00;;;;;;6915706;28;20089;-78
2022/06/09 14:32:54;;;;;;;4.82;0.90;;;20.20;86.20;;;;;;6915746;28;20048;-79
2022/06/09 14:36:19;;;;;;;4.07;1.15;;;20.10;87.60;;;;;;6915733;28;20511;-79
2022/06/09 14:39:42;;;;;;;4.85;1.00;;;20.30;86.40;;;;;;6915570;28;20050;-77
2022/06/09 14:43:05;;;;;;;3.97;1.00;;;20.70;84.70;;;;;;6915605;28;20050;-79
2022/06/09 14:46:29;;;;;;;;;;;20.70;82.00;;;;;;6916089;28;20484;-75
2022/06/09 14:49:53;;;;;;;4.88;1.20;;;20.30;81.40;;;;;;6915456;28;20649;-78
2022/06/09 14:53:17;;;;;;;6.88;1.05;;;20.00;82.80;;;;;;6914052;28;20108;-77
2022/06/09 14:56:42;;;;;;;3.58;0.90;;;19.70;84.10;;;;;;6930212;28;20081;-76
2022/06/09 15:00:07;;;;;;;5.53;1.25;;;19.50;84.90;;;;;;6938009;28;20045;-79
2022/06/09 15:03:29;;;;;;;6.13;1.55;;;19.40;84.90;;;;;;6942943;28;20502;-77
2022/06/09 15:06:53;;;;;;;4.07;1.00;;;19.30;85.30;;;;;;6940619;28;20495;-79
2022/06/09 15:10:21;;;;;;;5.53;1.15;;;19.30;85.70;;;;;;6927930;28;20073;-78
2022/06/09 15:13:43;;;;;;;4.90;0.95;;;19.40;85.40;;;;;;6944286;28;20517;-79
2022/06/09 15:17:06;;;;;;;4.28;1.17;;;19.40;84.90;;;;;;6944481;28;20185;-79
2022/06/09 15:20:31;;;;;;;;;;;19.60;85.10;;;;;;6942602;28;20087;-78
2022/06/09 15:23:55;;;;;;;5.60;1.55;;;19.60;85.20;;;;;;6920382;28;20295;-79
2022/06/09 15:27:18;;;;;;;4.65;1.40;;;19.60;85.20;;;;;;6926678;28;20099;-77
2022/06/09 15:30:40;;;;;;;5.93;1.17;;;19.50;85.20;;;;;;6920523;28;20124;-80
2022/06/09 15:34:02;;;;;;;4.88;1.10;;;19.50;87.00;;;;;;6920366;28;20582;-77
2022/06/09 15:37:24;;;;;;;3.58;0.90;;;19.60;85.80;;;;;;6926532;28;20050;-78
2022/06/09 15:40:49;;;;;;;6.78;1.10;;;20.00;85.50;;;;;;6919950;28;20050;-78
2022/06/09 15:44:11;;;;;;;5.00;0.85;;;20.70;81.90;;;;;;6923323;28;20053;-78
2022/06/09 15:47:33;;;;;;;3.85;0.93;;;21.10;79.00;;;;;;6919833;28;20050;-77
2022/06/09 15:50:57;;;;;;;4.68;1.20;;;21.30;74.50;;;;;;6929592;28;20073;-77
2022/06/09 15:54:19;;;;;;;4.07;0.70;;;21.40;68.50;;;;;;6932341;28;20077;-79
2022/06/09 15:57:42;;;;;;;3.20;0.80;;;21.20;67.80;;;;;;6925867;28;20446;-79
2022/06/09 16:01:06;;;;;;;4.05;1.10;;;21.50;68.00;;;;;;6924071;28;20081;-79
2022/06/09 16:04:28;;;;;;;3.53;0.90;;;22.50;64.50;;;;;;6941053;28;20060;-79
2022/06/09 16:07:51;;;;;;;3.70;1.00;;;22.40;63.70;;;;;;6943381;28;20077;-79
2022/06/09 16:11:13;;;;;;;4.80;1.00;;;22.40;64.10;;;;;;6946405;28;20089;-76
2022/06/09 16:14:37;;;;;;;4.85;0.90;;;22.50;63.40;;;;;;6930896;28;20096;-79
2022/06/09 16:17:59;;;;;;;4.35;1.10;;;22.60;63.70;;;;;;6916092;28;20836;-78
2022/06/09 16:21:21;;;;;;;3.78;1.15;;;22.40;64.40;;;;;;6914708;28;20085;-78
2022/06/09 16:24:43;;;;;;;5.43;1.98;;;22.10;64.10;;;;;;6919628;28;20123;-78
2022/06/09 16:28:09;;;;;;;3.40;1.20;;;21.80;64.00;;;;;;6904919;28;20089;-79
2022/06/09 16:31:33;;;;;;;3.88;1.10;;;21.70;66.40;;;;;;6911107;28;20053;-76
2022/06/09 16:34:56;;;;;;;5.63;1.30;;;21.40;68.90;;;;;;6905684;28;20046;-76
2022/06/09 16:38:18;;;;;;;6.70;1.40;;;21.00;72.10;;;;;;6915949;28;20096;-78
2022/06/09 16:41:40;;;;;;;6.47;1.17;;;20.70;74.80;;;;;;6917629;28;20092;-79
2022/06/09 16:45:02;;;;;;;2.67;0.90;;;20.40;75.50;;;;;;6924872;28;20446;-76
2022/06/09 16:48:25;;;;;;;4.57;1.00;;;20.20;76.10;;;;;;6945729;28;20092;-76
2022/06/09 16:51:47;;;;;;;3.30;0.80;;;19.80;76.30;;;;;;6944307;28;20491;-76
2022/06/09 16:55:11;;;;;;;4.78;1.00;;;19.60;76.40;;;;;;6945659;28;20081;-78
2022/06/09 16:58:33;;;;;;;3.88;1.00;;;19.40;78.20;;;;;;6940690;28;20185;-76
2022/06/09 17:01:55;;;;;;;2.22;0.65;;;19.30;78.00;;;;;;6945464;28;20687;-81
2022/06/09 17:05:20;;;;;;;3.00;0.90;;;19.40;78.80;;;;;;6938046;28;20058;-85
2022/06/09 17:08:44;;;;;;;2.80;0.90;;;19.10;78.80;;;;;;6925896;28;20484;-83
2022/06/09 17:12:08;;;;;;;4.32;1.00;;;19.10;79.20;;;;;;6920622;28;20558;-81
2022/06/09 17:15:31;;;;;;;2.65;0.88;;;18.80;79.40;;;;;;6931271;28;20065;-83
2022/06/09 17:18:54;;;;;;;2.67;0.70;;;18.80;79.90;;;;;;6942933;28;20649;-83
2022/06/09 17:22:17;;;;;;;1.45;0.70;;;18.80;78.40;;;;;;6928365;28;20520;-81
2022/06/09 17:25:40;;;;;;;4.20;0.95;;;18.60;79.70;;;;;;6908033;28;20050;-80
2022/06/09 17:29:02;;;;;;;3.40;0.80;;;18.70;80.20;;;;;;6944939;28;20468;-84
2022/06/09 17:32:25;;;;;;;2.05;0.60;;;18.80;79.00;;;;;;6944981;28;20046;-83
2022/06/09 17:35:48;;;;;;;;;;;18.70;79.80;;;;;;6942911;28;20042;-84
2022/06/09 17:39:14;;;;;;;3.28;0.80;;;18.60;80.50;;;;;;6918988;28;20299;-76
2022/06/09 17:42:37;;;;;;;3.35;0.75;;;18.70;80.10;;;;;;6923745;28;20067;-79
2022/06/09 17:45:59;;;;;;;2.83;0.65;;;18.70;79.40;;;;;;6940217;28;20045;-79
2022/06/09 17:49:21;;;;;;;4.15;0.88;;;18.70;80.30;;;;;;6902730;28;20081;-75
2022/06/09 17:52:45;;;;;;;2.10;0.70;;;18.70;80.60;;;;;;6924095;28;20076;-77
2022/06/09 17:56:09;;;;;;;2.75;0.88;;;18.70;79.80;;;;;;6919383;28;20546;-75
2022/06/09 17:59:31;;;;;;;3.80;0.90;;;18.70;79.90;;;;;;6916239;28;20096;-79
2022/06/09 18:02:54;;;;;;;2.97;0.75;;;18.60;80.30;;;;;;6913205;28;20107;-78
2022/06/09 18:06:16;;;;;;;3.42;0.80;;;18.50;80.30;;;;;;6916228;28;20081;-77
2022/06/09 18:09:38;;;;;;;2.20;0.60;;;18.40;79.60;;;;;;6922817;28;20080;-78
2022/06/09 18:13:02;;;;;;;2.38;0.70;;;18.40;79.00;;;;;;6943423;28;20591;-78
2022/06/09 18:16:24;;;;;;;4.22;0.90;;;18.40;79.90;;;;;;6937513;28;20077;-77
2022/06/09 18:19:47;;;;;;;3.28;0.80;;;18.40;80.30;;;;;;6915856;28;20388;-78